createdAt,value
2023-02-27T00:01:29.191Z,1.52
2023-02-27T00:03:58.311Z,1.75
2023-02-27T00:06:28.502Z,1.88
2023-02-27T00:08:57.055Z,1.63
2023-02-27T00:11:25.966Z,1.90
2023-02-27T00:13:54.698Z,1.80
2023-02-27T00:16:23.511Z,1.60
2023-02-27T00:18:52.020Z,1.55
2023-02-27T00:21:20.624Z,1.92
2023-02-27T00:23:51.596Z,1.67
2023-02-27T00:26:20.300Z,2.05
2023-02-27T00:28:48.687Z,2.00
2023-02-27T00:31:17.208Z,2.03
2023-02-27T00:33:45.827Z,1.70
2023-02-27T00:36:14.582Z,1.83
2023-02-27T00:38:43.143Z,2.10
2023-02-27T00:41:13.020Z,1.77
2023-02-27T00:43:41.461Z,1.92
2023-02-27T00:46:10.367Z,1.70
2023-02-27T00:48:38.915Z,2.00
2023-02-27T00:51:07.411Z,1.95
2023-02-27T00:53:35.907Z,1.80
2023-02-27T00:56:04.742Z,1.63
2023-02-27T00:58:34.700Z,1.67
2023-02-27T01:01:03.338Z,2.40
2023-02-27T01:03:31.942Z,2.13
2023-02-27T01:06:00.489Z,1.90
2023-02-27T01:08:29.018Z,2.17
2023-02-27T01:10:58.588Z,1.80
2023-02-27T01:13:27.251Z,2.00
2023-02-27T01:15:57.311Z,1.85
2023-02-27T01:18:25.877Z,2.10
2023-02-27T01:20:54.717Z,1.83
2023-02-27T01:23:23.871Z,2.45
2023-02-27T01:25:52.380Z,2.28
2023-02-27T01:28:21.208Z,2.13
2023-02-27T01:30:50.043Z,2.15
2023-02-27T01:33:19.927Z,1.90
2023-02-27T01:35:48.398Z,2.28
2023-02-27T01:38:16.887Z,2.08
2023-02-27T01:40:45.886Z,2.10
2023-02-27T01:43:17.846Z,2.20
2023-02-27T01:45:48.776Z,2.10
2023-02-27T01:48:21.974Z,2.38
2023-02-27T01:50:54.664Z,2.30
2023-02-27T01:53:26.040Z,2.17
2023-02-27T01:55:59.323Z,2.38
2023-02-27T01:58:28.437Z,2.55
2023-02-27T02:00:57.235Z,2.53
2023-02-27T02:03:34.113Z,2.60
2023-02-27T02:06:06.071Z,2.30
2023-02-27T02:08:39.360Z,2.42
2023-02-27T02:11:09.071Z,2.55
2023-02-27T02:13:39.189Z,2.60
2023-02-27T02:16:22.596Z,2.45
2023-02-27T02:19:02.227Z,2.38
2023-02-27T02:22:01.816Z,2.55
2023-02-27T02:25:08.268Z,2.50
2023-02-27T02:27:53.755Z,2.15
2023-02-27T02:30:45.087Z,2.50
2023-02-27T02:33:41.386Z,2.50
2023-02-27T02:36:48.973Z,2.33
2023-02-27T02:39:35.796Z,2.22
2023-02-27T02:42:11.055Z,2.28
2023-02-27T02:44:47.035Z,2.25
2023-02-27T02:47:26.261Z,2.45
2023-02-27T02:50:02.120Z,2.10
2023-02-27T02:52:41.037Z,2.30
2023-02-27T02:55:17.814Z,2.17
2023-02-27T02:57:54.467Z,2.40
2023-02-27T03:00:28.914Z,2.45
2023-02-27T03:03:06.220Z,2.50
2023-02-27T03:05:42.171Z,2.38
2023-02-27T03:08:14.766Z,1.98
2023-02-27T03:10:50.499Z,2.30
2023-02-27T03:13:25.796Z,2.30
2023-02-27T03:16:00.780Z,2.30
2023-02-27T03:18:36.003Z,2.30
2023-02-27T03:21:09.316Z,2.15
2023-02-27T03:23:43.822Z,2.20
2023-02-27T03:26:18.362Z,2.28
2023-02-27T03:28:57.679Z,2.65
2023-02-27T03:31:34.181Z,2.40
2023-02-27T03:34:10.343Z,2.55
2023-02-27T03:36:47.913Z,2.85
2023-02-27T03:39:28.296Z,2.70
2023-02-27T03:42:07.989Z,2.25
2023-02-27T03:45:00.399Z,2.42
2023-02-27T03:47:30.045Z,2.38
2023-02-27T03:49:58.740Z,2.30
2023-02-27T03:52:29.919Z,2.60
2023-02-27T03:55:01.722Z,2.20
2023-02-27T03:57:32.878Z,2.17
2023-02-27T04:00:01.619Z,2.28
2023-02-27T04:02:30.087Z,2.20
2023-02-27T04:04:58.946Z,2.10
2023-02-27T04:07:59.821Z,2.20
2023-02-27T04:10:46.578Z,2.28
2023-02-27T04:13:41.167Z,2.22
2023-02-27T04:16:45.945Z,1.88
2023-02-27T04:19:29.411Z,1.60
2023-02-27T04:22:07.552Z,2.13
2023-02-27T04:24:43.587Z,1.80
2023-02-27T04:27:23.216Z,1.80
2023-02-27T04:29:58.341Z,2.20
2023-02-27T04:32:32.911Z,1.80
2023-02-27T04:35:05.952Z,1.73
2023-02-27T04:37:43.768Z,2.00
2023-02-27T04:40:16.773Z,1.83
2023-02-27T04:42:49.471Z,2.10
2023-02-27T04:45:23.673Z,2.10
2023-02-27T04:47:57.342Z,2.00
2023-02-27T04:50:29.419Z,2.10
2023-02-27T04:53:03.711Z,2.05
2023-02-27T04:55:36.891Z,2.17
2023-02-27T04:58:11.213Z,1.90
2023-02-27T05:00:45.805Z,2.08
2023-02-27T05:05:47.437Z,2.30
2023-02-27T05:08:24.314Z,2.30
2023-02-27T05:10:59.635Z,2.70
2023-02-27T05:13:33.235Z,2.20
2023-02-27T05:16:10.537Z,2.20
2023-02-27T05:18:39.322Z,2.40
2023-02-27T05:21:17.085Z,2.45
2023-02-27T05:23:57.257Z,2.30
2023-02-27T05:26:35.854Z,2.30
2023-02-27T05:29:11.536Z,2.10
2023-02-27T05:31:48.239Z,2.20
2023-02-27T05:34:23.873Z,2.25
2023-02-27T05:36:56.620Z,2.13
2023-02-27T05:39:30.024Z,2.00
2023-02-27T05:42:02.897Z,2.35
2023-02-27T05:44:35.476Z,2.30
2023-02-27T05:47:10.461Z,2.30
2023-02-27T05:49:43.812Z,2.10
2023-02-27T05:52:16.151Z,2.10
2023-02-27T05:54:50.335Z,2.20
2023-02-27T05:57:24.387Z,2.03
2023-02-27T05:59:59.275Z,2.15
2023-02-27T06:02:29.186Z,2.28
2023-02-27T06:04:57.946Z,2.10
2023-02-27T06:07:26.349Z,2.28
2023-02-27T06:09:54.938Z,2.10
2023-02-27T06:12:23.448Z,2.00
2023-02-27T06:14:52.326Z,2.10
2023-02-27T06:17:20.793Z,2.38
2023-02-27T06:19:50.664Z,2.65
2023-02-27T06:22:19.206Z,2.20
2023-02-27T06:24:47.686Z,2.50
2023-02-27T06:27:16.133Z,3.00
2023-02-27T06:29:44.630Z,3.13
2023-02-27T06:32:13.278Z,2.92
2023-02-27T06:34:41.868Z,3.50
2023-02-27T06:37:11.778Z,3.28
2023-02-27T06:39:40.307Z,3.55
2023-02-27T06:42:08.720Z,3.58
2023-02-27T06:44:37.171Z,3.47
2023-02-27T06:47:05.650Z,3.20
2023-02-27T06:49:34.218Z,2.75
2023-02-27T06:52:02.716Z,2.67
2023-02-27T06:54:32.558Z,2.72
2023-02-27T06:57:01.017Z,2.72
2023-02-27T06:59:29.365Z,2.92
2023-02-27T07:01:59.152Z,2.83
2023-02-27T07:04:27.725Z,3.00
2023-02-27T07:07:36.466Z,2.95
2023-02-27T07:09:46.123Z,2.75
2023-02-27T07:12:14.666Z,2.60
2023-02-27T07:14:43.353Z,3.15
2023-02-27T07:17:11.791Z,2.78
2023-02-27T07:19:40.182Z,2.80
2023-02-27T07:22:09.531Z,2.50
2023-02-27T07:24:38.371Z,3.33
2023-02-27T07:27:08.225Z,2.95
2023-02-27T07:29:36.730Z,2.80
2023-02-27T07:32:05.469Z,2.67
2023-02-27T07:34:34.780Z,2.88
2023-02-27T07:37:03.294Z,2.50
2023-02-27T07:39:31.895Z,2.97
2023-02-27T07:42:00.383Z,2.92
2023-02-27T07:44:30.298Z,3.15
2023-02-27T07:46:58.716Z,2.90
2023-02-27T07:49:27.202Z,3.53
2023-02-27T07:51:55.698Z,3.17
2023-02-27T07:54:24.345Z,3.70
2023-02-27T07:56:52.828Z,3.47
2023-02-27T07:59:21.195Z,3.80
2023-02-27T08:01:51.196Z,3.40
2023-02-27T08:04:19.594Z,3.13
2023-02-27T08:06:48.063Z,3.70
2023-02-27T08:09:17.667Z,3.33
2023-02-27T08:11:48.763Z,3.80
2023-02-27T08:14:17.447Z,3.28
2023-02-27T08:16:45.832Z,3.10
2023-02-27T08:19:15.954Z,3.22
2023-02-27T08:21:44.376Z,2.97
2023-02-27T08:24:12.827Z,3.00
2023-02-27T08:26:41.160Z,3.00
2023-02-27T08:29:09.617Z,2.60
2023-02-27T08:31:38.123Z,2.80
2023-02-27T08:34:10.358Z,2.40
2023-02-27T08:36:41.147Z,2.70
2023-02-27T08:39:10.548Z,3.28
2023-02-27T08:41:38.838Z,2.90
2023-02-27T08:44:07.189Z,3.00
2023-02-27T08:46:35.504Z,2.63
2023-02-27T08:49:03.841Z,2.83
2023-02-27T08:51:32.184Z,2.22
2023-02-27T08:54:02.113Z,2.40
2023-02-27T08:56:30.608Z,2.40
2023-02-27T08:58:59.072Z,2.10
2023-02-27T09:01:31.829Z,2.35
2023-02-27T09:04:00.627Z,2.20
2023-02-27T09:06:29.580Z,2.40
2023-02-27T09:08:58.989Z,2.28
2023-02-27T09:11:29.201Z,2.17
2023-02-27T09:13:58.821Z,2.00
2023-02-27T09:16:27.855Z,2.50
2023-02-27T09:18:56.681Z,2.60
2023-02-27T09:21:25.629Z,2.30
2023-02-27T09:23:54.947Z,2.20
2023-02-27T09:26:38.919Z,2.13
2023-02-27T09:29:10.573Z,2.00
2023-02-27T09:31:38.917Z,2.33
2023-02-27T09:34:07.327Z,2.20
2023-02-27T09:36:35.804Z,2.08
2023-02-27T09:39:04.484Z,2.13
2023-02-27T09:41:43.711Z,2.20
2023-02-27T09:44:39.891Z,2.00
2023-02-27T09:47:17.977Z,2.38
2023-02-27T09:49:55.210Z,2.08
2023-02-27T09:52:23.584Z,1.98
2023-02-27T09:54:54.133Z,2.15
2023-02-27T09:57:32.665Z,1.95
2023-02-27T10:00:07.617Z,1.80
2023-02-27T10:02:51.290Z,2.00
2023-02-27T10:05:30.954Z,1.90
2023-02-27T10:08:06.688Z,2.25
2023-02-27T10:10:41.584Z,2.00
2023-02-27T10:13:31.085Z,1.85
2023-02-27T10:16:03.540Z,2.17
2023-02-27T10:18:36.614Z,1.90
2023-02-27T10:21:08.619Z,1.73
2023-02-27T10:23:43.154Z,1.75
2023-02-27T10:26:20.672Z,1.83
2023-02-27T10:28:49.323Z,2.00
2023-02-27T10:31:24.042Z,1.95
2023-02-27T10:33:53.553Z,1.95
2023-02-27T10:36:33.030Z,2.00
2023-02-27T10:39:06.732Z,1.90
2023-02-27T10:41:36.827Z,1.70
2023-02-27T10:44:05.610Z,1.50
2023-02-27T10:46:38.783Z,1.67
2023-02-27T10:49:19.085Z,1.83
2023-02-27T10:52:04.289Z,1.88
2023-02-27T10:54:32.897Z,1.90
2023-02-27T10:57:03.822Z,1.88
2023-02-27T10:59:36.452Z,1.63
2023-02-27T11:02:23.418Z,1.90
2023-02-27T11:04:54.613Z,1.70
2023-02-27T11:07:35.010Z,1.70
2023-02-27T11:10:17.157Z,1.77
2023-02-27T11:12:59.863Z,1.40
2023-02-27T11:15:30.299Z,1.55
2023-02-27T11:18:27.215Z,1.55
2023-02-27T11:21:09.693Z,1.45
2023-02-27T11:23:38.608Z,1.48
2023-02-27T11:26:16.364Z,1.40
2023-02-27T11:28:44.878Z,1.50
2023-02-27T11:31:21.989Z,1.55
2023-02-27T11:33:54.376Z,1.80
2023-02-27T11:36:23.852Z,1.40
2023-02-27T11:38:57.494Z,1.48
2023-02-27T11:41:31.661Z,1.60
2023-02-27T11:44:03.000Z,1.67
2023-02-27T11:46:47.975Z,1.60
2023-02-27T11:49:32.046Z,1.60
2023-02-27T11:52:09.423Z,1.80
2023-02-27T11:54:41.788Z,1.70
2023-02-27T11:57:20.325Z,1.50
2023-02-27T11:59:53.280Z,1.60
2023-02-27T12:02:29.938Z,1.75
2023-02-27T12:05:07.745Z,1.60
2023-02-27T12:07:42.470Z,1.67
2023-02-27T12:10:17.145Z,1.55
2023-02-27T12:15:25.128Z,1.50
2023-02-27T12:18:00.563Z,1.70
2023-02-27T12:20:36.226Z,1.48
2023-02-27T12:23:14.923Z,1.38
2023-02-27T12:25:47.299Z,1.33
2023-02-27T12:28:37.620Z,1.30
2023-02-27T12:31:18.123Z,1.58
2023-02-27T12:33:53.372Z,1.23
2023-02-27T12:36:23.312Z,1.30
2023-02-27T12:38:52.775Z,1.30
2023-02-27T12:41:43.955Z,1.30
2023-02-27T12:44:29.129Z,1.30
2023-02-27T12:47:12.341Z,1.30
2023-02-27T12:49:50.033Z,1.20
2023-02-27T12:52:31.973Z,1.33
2023-02-27T12:55:05.748Z,1.40
2023-02-27T12:57:49.206Z,1.40
2023-02-27T13:00:21.144Z,1.40
2023-02-27T13:03:05.136Z,1.27
2023-02-27T13:05:45.154Z,1.48
2023-02-27T13:08:50.610Z,1.40
2023-02-27T13:11:26.312Z,1.38
2023-02-27T13:14:00.456Z,1.52
2023-02-27T13:16:34.749Z,1.60
2023-02-27T13:19:07.157Z,1.75
2023-02-27T13:21:39.844Z,1.33
2023-02-27T13:24:24.191Z,1.50
2023-02-27T13:26:58.878Z,1.50
2023-02-27T13:32:05.455Z,1.73
2023-02-27T13:34:38.488Z,1.50
2023-02-27T13:37:08.957Z,1.52
2023-02-27T13:39:53.703Z,1.50
2023-02-27T13:42:54.115Z,1.40
2023-02-27T13:45:48.941Z,1.45
2023-02-27T13:48:39.983Z,1.60
2023-02-27T13:51:28.006Z,1.42
2023-02-27T13:54:16.039Z,1.48
2023-02-27T13:56:48.428Z,1.30
2023-02-27T13:59:22.217Z,1.60
2023-02-27T14:01:54.357Z,1.57
2023-02-27T14:04:26.245Z,1.58
2023-02-27T14:06:59.561Z,1.50
2023-02-27T14:09:34.876Z,1.20
2023-02-27T14:12:07.182Z,1.50
2023-02-27T14:14:45.425Z,1.50
2023-02-27T14:17:15.475Z,1.30
2023-02-27T14:19:59.293Z,1.30
2023-02-27T14:23:05.998Z,1.67
2023-02-27T14:25:39.258Z,1.60
2023-02-27T14:28:21.329Z,1.67
2023-02-27T14:30:55.047Z,1.58
2023-02-27T14:33:38.048Z,1.80
2023-02-27T14:36:15.133Z,1.60
2023-02-27T14:38:44.003Z,1.80
2023-02-27T14:41:28.412Z,1.70
2023-02-27T14:44:01.404Z,1.70
2023-02-27T14:46:33.707Z,1.40
2023-02-27T14:49:05.462Z,1.80
2023-02-27T14:51:36.921Z,1.80
2023-02-27T14:54:09.976Z,1.70
2023-02-27T14:56:38.355Z,1.77
2023-02-27T14:59:23.387Z,1.60
2023-02-27T15:04:23.185Z,1.92
2023-02-27T15:06:53.615Z,1.65
2023-02-27T15:09:25.402Z,1.83
2023-02-27T15:12:03.611Z,1.88
2023-02-27T15:14:36.701Z,1.80
2023-02-27T15:17:18.100Z,1.50
2023-02-27T15:19:48.376Z,1.30
2023-02-27T15:22:28.917Z,1.60
2023-02-27T15:25:07.551Z,1.60
2023-02-27T15:27:38.114Z,1.60
2023-02-27T15:30:22.152Z,1.92
2023-02-27T15:32:50.890Z,1.60
2023-02-27T15:35:22.209Z,1.75
2023-02-27T15:37:53.716Z,1.65
2023-02-27T15:40:25.486Z,1.58
2023-02-27T15:42:58.459Z,1.50
2023-02-27T15:45:31.639Z,1.73
2023-02-27T15:48:00.321Z,2.00
2023-02-27T15:50:32.383Z,1.80
2023-02-27T15:53:05.614Z,1.70
2023-02-27T15:55:38.422Z,1.92
2023-02-27T15:58:19.389Z,1.90
2023-02-27T16:00:49.886Z,2.10
2023-02-27T16:03:24.353Z,1.77
2023-02-27T16:05:54.049Z,1.70
2023-02-27T16:08:22.605Z,2.03
2023-02-27T16:10:51.998Z,1.90
2023-02-27T16:13:39.704Z,1.77
2023-02-27T16:16:25.084Z,1.90
2023-02-27T16:18:56.143Z,2.15
2023-02-27T16:21:25.522Z,2.25
2023-02-27T16:23:55.089Z,1.92
2023-02-27T16:26:30.843Z,1.80
2023-02-27T16:29:02.605Z,1.90
2023-02-27T16:31:35.643Z,1.80
2023-02-27T16:34:16.286Z,1.90
2023-02-27T16:36:54.596Z,1.80
2023-02-27T16:39:23.393Z,1.70
2023-02-27T16:41:53.484Z,1.80
2023-02-27T16:44:23.721Z,1.60
2023-02-27T16:46:54.209Z,1.42
2023-02-27T16:49:25.799Z,1.50
2023-02-27T16:51:54.386Z,1.45
2023-02-27T16:54:23.283Z,1.40
2023-02-27T16:56:52.297Z,1.70
2023-02-27T16:59:32.478Z,1.42
2023-02-27T17:02:03.747Z,1.30
2023-02-27T17:04:32.939Z,1.45
2023-02-27T17:07:06.398Z,1.58
2023-02-27T17:09:37.761Z,1.48
2023-02-27T17:12:06.459Z,1.35
2023-02-27T17:14:36.663Z,1.48
2023-02-27T17:17:08.397Z,1.40
2023-02-27T17:19:36.798Z,1.70
2023-02-27T17:22:05.387Z,1.50
2023-02-27T17:24:33.932Z,1.30
2023-02-27T17:27:02.444Z,1.30
2023-02-27T17:29:31.179Z,1.35
2023-02-27T17:32:02.887Z,1.35
2023-02-27T17:34:32.853Z,1.60
2023-02-27T17:37:01.403Z,1.40
2023-02-27T17:39:29.909Z,1.20
2023-02-27T17:41:58.364Z,1.38
2023-02-27T17:44:26.922Z,1.48
2023-02-27T17:46:55.580Z,1.35
2023-02-27T17:49:24.207Z,1.70
2023-02-27T17:51:54.056Z,2.00
2023-02-27T17:54:22.656Z,1.80
2023-02-27T17:56:51.216Z,1.63
2023-02-27T17:59:22.926Z,2.10
2023-02-27T18:01:53.458Z,1.98
2023-02-27T18:04:23.857Z,1.92
2023-02-27T18:06:53.992Z,2.38
2023-02-27T18:09:22.546Z,2.58
2023-02-27T18:11:51.253Z,2.28
2023-02-27T18:14:19.732Z,2.35
2023-02-27T18:16:48.390Z,2.40
2023-02-27T18:19:17.422Z,2.80
2023-02-27T18:21:47.154Z,2.60
2023-02-27T18:24:18.199Z,2.72
2023-02-27T18:26:46.810Z,3.03
2023-02-27T18:29:16.263Z,2.67
2023-02-27T18:31:47.111Z,3.15
2023-02-27T18:34:15.849Z,2.97
2023-02-27T18:36:44.298Z,3.05
2023-02-27T18:39:12.932Z,2.55
2023-02-27T18:41:42.992Z,2.60
2023-02-27T18:44:11.621Z,2.70
2023-02-27T18:46:40.642Z,2.30
2023-02-27T18:49:09.602Z,2.20
2023-02-27T18:51:38.555Z,2.17
2023-02-27T18:54:07.152Z,2.20
2023-02-27T18:56:35.792Z,1.90
2023-02-27T18:59:06.844Z,2.20
2023-02-27T19:01:37.307Z,2.08
2023-02-27T19:04:07.830Z,1.90
2023-02-27T19:06:38.942Z,2.42
2023-02-27T19:11:54.532Z,2.00
2023-02-27T19:14:24.405Z,2.03
2023-02-27T19:16:53.454Z,1.90
2023-02-27T19:19:21.915Z,2.03
2023-02-27T19:21:50.596Z,1.90
2023-02-27T19:24:19.079Z,2.15
2023-02-27T19:26:47.745Z,2.00
2023-02-27T19:29:16.984Z,1.98
2023-02-27T19:31:47.028Z,1.90
2023-02-27T19:34:15.884Z,2.17
2023-02-27T19:36:44.503Z,2.40
2023-02-27T19:39:13.010Z,2.05
2023-02-27T19:41:41.969Z,2.10
2023-02-27T19:44:10.827Z,1.80
2023-02-27T19:46:41.346Z,1.95
2023-02-27T19:49:11.892Z,2.10
2023-02-27T19:51:41.495Z,2.10
2023-02-27T19:54:13.627Z,2.50
2023-02-27T19:56:42.605Z,2.20
2023-02-27T19:59:12.405Z,2.42
2023-02-27T20:01:41.509Z,2.25
2023-02-27T20:04:12.848Z,2.15
2023-02-27T20:06:43.034Z,2.30
2023-02-27T20:09:14.424Z,2.38
2023-02-27T20:11:43.918Z,2.30
2023-02-27T20:14:17.176Z,2.30
2023-02-27T20:16:48.792Z,2.20
2023-02-27T20:19:19.909Z,2.05
2023-02-27T20:21:48.825Z,1.92
2023-02-27T20:24:18.816Z,1.90
2023-02-27T20:26:49.862Z,1.92
2023-02-27T20:29:20.389Z,2.40
2023-02-27T20:31:51.313Z,2.10
2023-02-27T20:34:24.858Z,2.10
2023-02-27T20:36:57.173Z,2.30
2023-02-27T20:39:27.942Z,2.20
2023-02-27T20:41:56.483Z,2.45
2023-02-27T20:44:24.911Z,2.65
2023-02-27T20:46:53.458Z,2.30
2023-02-27T20:49:23.370Z,2.03
2023-02-27T20:51:51.864Z,2.40
2023-02-27T20:54:23.215Z,2.20
2023-02-27T20:56:53.746Z,2.30
2023-02-27T20:59:25.199Z,2.15
2023-02-27T21:01:54.848Z,2.20
2023-02-27T21:04:26.117Z,2.28
2023-02-27T21:06:55.788Z,2.13
2023-02-27T21:09:24.289Z,2.15
2023-02-27T21:11:52.784Z,2.53
2023-02-27T21:14:21.553Z,2.00
2023-02-27T21:16:50.069Z,2.00
2023-02-27T21:19:18.786Z,1.92
2023-02-27T21:21:48.707Z,2.08
2023-02-27T21:24:17.895Z,2.17
2023-02-27T21:26:46.346Z,2.05
2023-02-27T21:29:16.791Z,1.88
2023-02-27T21:31:48.866Z,2.00
2023-02-27T21:34:20.073Z,2.05
2023-02-27T21:36:50.368Z,1.83
2023-02-27T21:39:21.997Z,2.10
2023-02-27T21:41:59.588Z,2.05
2023-02-27T21:44:29.632Z,1.65
2023-02-27T21:46:58.689Z,2.00
2023-02-27T21:49:52.288Z,2.10
2023-02-27T21:52:22.254Z,2.10
2023-02-27T21:54:51.162Z,1.83
2023-02-27T21:57:23.548Z,2.50
2023-02-27T21:59:52.953Z,2.10
2023-02-27T22:02:22.147Z,2.15
2023-02-27T22:04:50.759Z,2.17
2023-02-27T22:07:19.284Z,2.50
2023-02-27T22:09:49.976Z,2.08
2023-02-27T22:12:18.999Z,2.10
2023-02-27T22:14:47.489Z,2.25
2023-02-27T22:17:15.930Z,2.20
2023-02-27T22:19:44.553Z,2.20
2023-02-27T22:22:13.004Z,2.22
2023-02-27T22:24:42.016Z,2.08
2023-02-27T22:27:11.833Z,2.30
2023-02-27T22:29:42.201Z,2.15
2023-02-27T22:32:11.424Z,2.53
2023-02-27T22:34:39.919Z,2.53
2023-02-27T22:37:08.404Z,2.47
2023-02-27T22:39:37.212Z,2.90
2023-02-27T22:42:05.760Z,2.40
2023-02-27T22:44:35.613Z,2.30
2023-02-27T22:47:04.255Z,2.45
2023-02-27T22:49:32.752Z,2.80
2023-02-27T22:52:01.180Z,2.75
2023-02-27T22:54:30.384Z,2.90
2023-02-27T22:56:58.851Z,2.72
2023-02-27T22:59:27.431Z,2.40
2023-02-27T23:01:57.338Z,2.30
2023-02-27T23:04:25.852Z,2.58
2023-02-27T23:06:56.239Z,2.60
2023-02-27T23:09:27.228Z,2.45
2023-02-27T23:11:55.864Z,2.58
2023-02-27T23:14:24.307Z,2.97
2023-02-27T23:16:52.876Z,2.50
2023-02-27T23:19:23.399Z,2.30
2023-02-27T23:21:51.923Z,2.10
2023-02-27T23:24:21.249Z,2.30
2023-02-27T23:26:51.512Z,2.42
2023-02-27T23:29:20.502Z,2.35
2023-02-27T23:31:49.046Z,2.38
2023-02-27T23:34:17.706Z,2.17
2023-02-27T23:36:47.567Z,2.13
2023-02-27T23:39:16.065Z,2.03
2023-02-27T23:41:44.579Z,2.17
2023-02-27T23:44:30.298Z,2.10
2023-02-27T23:46:58.769Z,1.92
2023-02-27T23:49:27.311Z,2.30
2023-02-27T23:51:57.160Z,1.90
2023-02-27T23:54:25.775Z,2.30
2023-02-27T23:56:54.297Z,1.70
2023-02-27T23:59:22.722Z,1.90
